sensor_id;sensor_type;location;lat;lon;timestamp;P1;durP1;ratioP1;P2;durP2;ratioP2
24159;SDS011;62385;41.594;23.808;2022-12-20T00:01:11;2.30;;;0.50;;
24159;SDS011;62385;41.594;23.808;2022-12-20T00:03:40;3.40;;;2.23;;
24159;SDS011;62385;41.594;23.808;2022-12-20T00:06:06;1.50;;;1.40;;
24159;SDS011;62385;41.594;23.808;2022-12-20T00:08:32;1.40;;;0.63;;
24159;SDS011;62385;41.594;23.808;2022-12-20T00:10:59;1.00;;;0.50;;
24159;SDS011;62385;41.594;23.808;2022-12-20T00:13:27;1.23;;;0.47;;
24159;SDS011;62385;41.594;23.808;2022-12-20T00:16:16;2.00;;;0.97;;
24159;SDS011;62385;41.594;23.808;2022-12-20T00:18:43;1.23;;;0.70;;
24159;SDS011;62385;41.594;23.808;2022-12-20T00:21:10;1.20;;;1.10;;
24159;SDS011;62385;41.594;23.808;2022-12-20T00:23:37;1.70;;;0.67;;
24159;SDS011;62385;41.594;23.808;2022-12-20T00:26:05;1.87;;;0.60;;
24159;SDS011;62385;41.594;23.808;2022-12-20T00:28:33;1.23;;;0.77;;
24159;SDS011;62385;41.594;23.808;2022-12-20T00:31:00;0.67;;;0.60;;
24159;SDS011;62385;41.594;23.808;2022-12-20T00:33:26;3.40;;;1.03;;
24159;SDS011;62385;41.594;23.808;2022-12-20T00:35:56;1.50;;;1.33;;
24159;SDS011;62385;41.594;23.808;2022-12-20T00:38:22;3.37;;;0.97;;
24159;SDS011;62385;41.594;23.808;2022-12-20T00:41:02;2.23;;;0.63;;
24159;SDS011;62385;41.594;23.808;2022-12-20T00:43:28;1.13;;;0.40;;
24159;SDS011;62385;41.594;23.808;2022-12-20T00:45:54;1.80;;;0.67;;
24159;SDS011;62385;41.594;23.808;2022-12-20T00:48:20;1.37;;;0.93;;
24159;SDS011;62385;41.594;23.808;2022-12-20T00:50:46;1.10;;;0.77;;
24159;SDS011;62385;41.594;23.808;2022-12-20T00:53:12;0.20;;;0.00;;
24159;SDS011;62385;41.594;23.808;2022-12-20T00:55:41;2.03;;;1.33;;
24159;SDS011;62385;41.594;23.808;2022-12-20T00:58:08;0.20;;;0.20;;
24159;SDS011;62385;41.594;23.808;2022-12-20T01:00:35;0.40;;;0.30;;
24159;SDS011;62385;41.594;23.808;2022-12-20T01:03:01;0.40;;;0.40;;
24159;SDS011;62385;41.594;23.808;2022-12-20T01:05:27;0.97;;;0.60;;
24159;SDS011;62385;41.594;23.808;2022-12-20T01:07:54;0.87;;;0.67;;
24159;SDS011;62385;41.594;23.808;2022-12-20T01:10:19;2.67;;;0.60;;
24159;SDS011;62385;41.594;23.808;2022-12-20T01:12:45;4.40;;;0.50;;
24159;SDS011;62385;41.594;23.808;2022-12-20T01:15:10;1.00;;;0.83;;
24159;SDS011;62385;41.594;23.808;2022-12-20T01:17:37;2.40;;;1.60;;
24159;SDS011;62385;41.594;23.808;2022-12-20T01:20:03;0.93;;;0.30;;
24159;SDS011;62385;41.594;23.808;2022-12-20T01:22:29;2.07;;;1.13;;
24159;SDS011;62385;41.594;23.808;2022-12-20T01:24:55;1.40;;;1.03;;
24159;SDS011;62385;41.594;23.808;2022-12-20T01:27:22;1.40;;;0.70;;
24159;SDS011;62385;41.594;23.808;2022-12-20T01:29:47;1.83;;;1.53;;
24159;SDS011;62385;41.594;23.808;2022-12-20T01:32:13;0.50;;;0.40;;
24159;SDS011;62385;41.594;23.808;2022-12-20T01:34:38;0.70;;;0.47;;
24159;SDS011;62385;41.594;23.808;2022-12-20T01:37:04;0.50;;;0.50;;
24159;SDS011;62385;41.594;23.808;2022-12-20T01:39:30;0.70;;;0.70;;
24159;SDS011;62385;41.594;23.808;2022-12-20T01:41:55;0.97;;;0.73;;
24159;SDS011;62385;41.594;23.808;2022-12-20T01:46:47;0.40;;;0.40;;
24159;SDS011;62385;41.594;23.808;2022-12-20T01:52:17;0.53;;;0.40;;
24159;SDS011;62385;41.594;23.808;2022-12-20T01:55:07;0.60;;;0.50;;
24159;SDS011;62385;41.594;23.808;2022-12-20T01:57:43;2.40;;;1.13;;
24159;SDS011;62385;41.594;23.808;2022-12-20T02:00:16;0.40;;;0.40;;
24159;SDS011;62385;41.594;23.808;2022-12-20T02:02:44;2.63;;;0.67;;
24159;SDS011;62385;41.594;23.808;2022-12-20T02:05:12;0.60;;;0.40;;
24159;SDS011;62385;41.594;23.808;2022-12-20T02:07:39;0.43;;;0.37;;
24159;SDS011;62385;41.594;23.808;2022-12-20T02:10:08;1.43;;;1.03;;
24159;SDS011;62385;41.594;23.808;2022-12-20T02:12:37;1.80;;;0.93;;
24159;SDS011;62385;41.594;23.808;2022-12-20T02:31:29;0.80;;;0.80;;
24159;SDS011;62385;41.594;23.808;2022-12-20T02:34:03;2.00;;;1.27;;
24159;SDS011;62385;41.594;23.808;2022-12-20T02:36:30;0.73;;;0.50;;
24159;SDS011;62385;41.594;23.808;2022-12-20T02:38:55;1.63;;;1.23;;
24159;SDS011;62385;41.594;23.808;2022-12-20T02:41:26;1.30;;;0.93;;
24159;SDS011;62385;41.594;23.808;2022-12-20T02:44:02;0.57;;;0.57;;
24159;SDS011;62385;41.594;23.808;2022-12-20T02:46:51;0.20;;;0.20;;
24159;SDS011;62385;41.594;23.808;2022-12-20T02:49:20;1.90;;;1.40;;
24159;SDS011;62385;41.594;23.808;2022-12-20T02:51:50;0.53;;;0.50;;
24159;SDS011;62385;41.594;23.808;2022-12-20T02:54:18;0.77;;;0.77;;
24159;SDS011;62385;41.594;23.808;2022-12-20T02:56:53;1.43;;;0.83;;
24159;SDS011;62385;41.594;23.808;2022-12-20T03:02:31;1.90;;;0.20;;
24159;SDS011;62385;41.594;23.808;2022-12-20T03:05:20;0.70;;;0.70;;
24159;SDS011;62385;41.594;23.808;2022-12-20T03:07:48;0.30;;;0.30;;
24159;SDS011;62385;41.594;23.808;2022-12-20T03:10:17;1.43;;;1.10;;
24159;SDS011;62385;41.594;23.808;2022-12-20T03:12:44;2.10;;;1.23;;
24159;SDS011;62385;41.594;23.808;2022-12-20T03:15:29;1.00;;;0.70;;
24159;SDS011;62385;41.594;23.808;2022-12-20T03:17:57;3.13;;;0.80;;
24159;SDS011;62385;41.594;23.808;2022-12-20T03:20:22;1.47;;;0.83;;
24159;SDS011;62385;41.594;23.808;2022-12-20T03:22:50;0.73;;;0.60;;
24159;SDS011;62385;41.594;23.808;2022-12-20T03:25:15;2.43;;;1.60;;
24159;SDS011;62385;41.594;23.808;2022-12-20T03:27:41;0.37;;;0.30;;
24159;SDS011;62385;41.594;23.808;2022-12-20T03:30:08;1.60;;;1.20;;
24159;SDS011;62385;41.594;23.808;2022-12-20T03:32:35;0.47;;;0.47;;
24159;SDS011;62385;41.594;23.808;2022-12-20T03:35:01;1.43;;;0.73;;
24159;SDS011;62385;41.594;23.808;2022-12-20T03:37:32;0.87;;;0.73;;
24159;SDS011;62385;41.594;23.808;2022-12-20T03:40:01;1.30;;;1.00;;
24159;SDS011;62385;41.594;23.808;2022-12-20T03:42:26;0.70;;;0.63;;
24159;SDS011;62385;41.594;23.808;2022-12-20T03:44:52;2.27;;;1.77;;
24159;SDS011;62385;41.594;23.808;2022-12-20T03:47:17;1.33;;;1.23;;
24159;SDS011;62385;41.594;23.808;2022-12-20T03:49:45;8.40;;;1.50;;
24159;SDS011;62385;41.594;23.808;2022-12-20T03:52:11;1.50;;;1.40;;
24159;SDS011;62385;41.594;23.808;2022-12-20T03:54:37;1.57;;;1.10;;
24159;SDS011;62385;41.594;23.808;2022-12-20T03:57:07;0.83;;;0.83;;
24159;SDS011;62385;41.594;23.808;2022-12-20T03:59:33;1.27;;;1.13;;
24159;SDS011;62385;41.594;23.808;2022-12-20T04:02:00;1.80;;;1.70;;
24159;SDS011;62385;41.594;23.808;2022-12-20T04:04:27;1.63;;;1.37;;
24159;SDS011;62385;41.594;23.808;2022-12-20T04:06:53;2.30;;;1.30;;
24159;SDS011;62385;41.594;23.808;2022-12-20T04:09:19;2.33;;;1.93;;
24159;SDS011;62385;41.594;23.808;2022-12-20T04:11:49;1.63;;;1.53;;
24159;SDS011;62385;41.594;23.808;2022-12-20T04:14:15;0.93;;;0.93;;
24159;SDS011;62385;41.594;23.808;2022-12-20T04:16:42;1.60;;;1.50;;
24159;SDS011;62385;41.594;23.808;2022-12-20T04:19:08;0.77;;;0.73;;
24159;SDS011;62385;41.594;23.808;2022-12-20T04:21:40;1.80;;;1.27;;
24159;SDS011;62385;41.594;23.808;2022-12-20T04:24:06;1.50;;;0.77;;
24159;SDS011;62385;41.594;23.808;2022-12-20T04:26:41;1.83;;;1.73;;
24159;SDS011;62385;41.594;23.808;2022-12-20T04:29:09;5.30;;;2.57;;
24159;SDS011;62385;41.594;23.808;2022-12-20T04:31:34;0.93;;;0.57;;
24159;SDS011;62385;41.594;23.808;2022-12-20T04:34:00;1.97;;;1.70;;
24159;SDS011;62385;41.594;23.808;2022-12-20T04:36:28;0.93;;;0.83;;
24159;SDS011;62385;41.594;23.808;2022-12-20T04:38:55;2.00;;;1.80;;
24159;SDS011;62385;41.594;23.808;2022-12-20T04:41:21;8.37;;;1.70;;
24159;SDS011;62385;41.594;23.808;2022-12-20T04:43:50;0.70;;;0.70;;
24159;SDS011;62385;41.594;23.808;2022-12-20T04:46:19;1.30;;;1.20;;
24159;SDS011;62385;41.594;23.808;2022-12-20T04:48:46;0.93;;;0.73;;
24159;SDS011;62385;41.594;23.808;2022-12-20T04:51:11;0.77;;;0.63;;
24159;SDS011;62385;41.594;23.808;2022-12-20T04:53:37;0.57;;;0.57;;
24159;SDS011;62385;41.594;23.808;2022-12-20T04:56:21;3.37;;;2.47;;
24159;SDS011;62385;41.594;23.808;2022-12-20T04:58:49;0.87;;;0.67;;
24159;SDS011;62385;41.594;23.808;2022-12-20T05:01:17;0.67;;;0.67;;
24159;SDS011;62385;41.594;23.808;2022-12-20T05:03:47;0.70;;;0.70;;
24159;SDS011;62385;41.594;23.808;2022-12-20T05:06:14;2.03;;;1.50;;
24159;SDS011;62385;41.594;23.808;2022-12-20T05:08:40;1.93;;;1.00;;
24159;SDS011;62385;41.594;23.808;2022-12-20T05:11:07;2.93;;;2.73;;
24159;SDS011;62385;41.594;23.808;2022-12-20T05:13:33;6.73;;;2.23;;
24159;SDS011;62385;41.594;23.808;2022-12-20T05:16:00;3.73;;;3.43;;
24159;SDS011;62385;41.594;23.808;2022-12-20T05:18:29;2.67;;;2.20;;
24159;SDS011;62385;41.594;23.808;2022-12-20T05:21:01;7.40;;;3.47;;
24159;SDS011;62385;41.594;23.808;2022-12-20T05:23:48;0.87;;;0.83;;
24159;SDS011;62385;41.594;23.808;2022-12-20T05:26:46;3.53;;;2.73;;
24159;SDS011;62385;41.594;23.808;2022-12-20T05:29:13;1.67;;;1.23;;
24159;SDS011;62385;41.594;23.808;2022-12-20T05:31:41;1.53;;;1.43;;
24159;SDS011;62385;41.594;23.808;2022-12-20T05:34:08;2.93;;;2.00;;
24159;SDS011;62385;41.594;23.808;2022-12-20T05:36:35;1.30;;;1.20;;
24159;SDS011;62385;41.594;23.808;2022-12-20T05:39:04;0.37;;;0.30;;
24159;SDS011;62385;41.594;23.808;2022-12-20T05:41:32;1.93;;;1.80;;
24159;SDS011;62385;41.594;23.808;2022-12-20T05:43:59;4.70;;;1.77;;
24159;SDS011;62385;41.594;23.808;2022-12-20T05:46:26;0.93;;;0.90;;
24159;SDS011;62385;41.594;23.808;2022-12-20T05:48:56;6.33;;;1.23;;
24159;SDS011;62385;41.594;23.808;2022-12-20T05:51:41;2.37;;;1.27;;
24159;SDS011;62385;41.594;23.808;2022-12-20T05:54:16;5.73;;;3.93;;
24159;SDS011;62385;41.594;23.808;2022-12-20T05:56:56;2.50;;;1.43;;
24159;SDS011;62385;41.594;23.808;2022-12-20T05:59:31;5.17;;;3.07;;
24159;SDS011;62385;41.594;23.808;2022-12-20T06:01:58;2.33;;;1.83;;
24159;SDS011;62385;41.594;23.808;2022-12-20T06:04:23;2.37;;;1.40;;
24159;SDS011;62385;41.594;23.808;2022-12-20T06:06:50;1.53;;;1.43;;
24159;SDS011;62385;41.594;23.808;2022-12-20T06:09:18;2.43;;;2.23;;
24159;SDS011;62385;41.594;23.808;2022-12-20T06:11:51;2.73;;;2.53;;
24159;SDS011;62385;41.594;23.808;2022-12-20T06:14:17;7.47;;;5.10;;
24159;SDS011;62385;41.594;23.808;2022-12-20T06:16:45;5.57;;;5.17;;
24159;SDS011;62385;41.594;23.808;2022-12-20T06:19:12;4.60;;;3.60;;
24159;SDS011;62385;41.594;23.808;2022-12-20T06:21:39;2.23;;;2.03;;
24159;SDS011;62385;41.594;23.808;2022-12-20T06:24:06;5.93;;;3.03;;
24159;SDS011;62385;41.594;23.808;2022-12-20T06:26:34;4.37;;;2.77;;
24159;SDS011;62385;41.594;23.808;2022-12-20T06:29:03;6.60;;;3.30;;
24159;SDS011;62385;41.594;23.808;2022-12-20T06:31:36;5.53;;;3.73;;
24159;SDS011;62385;41.594;23.808;2022-12-20T06:34:20;5.73;;;4.00;;
24159;SDS011;62385;41.594;23.808;2022-12-20T06:36:48;7.67;;;4.93;;
24159;SDS011;62385;41.594;23.808;2022-12-20T06:39:18;8.47;;;4.80;;
24159;SDS011;62385;41.594;23.808;2022-12-20T06:41:56;2.83;;;2.27;;
24159;SDS011;62385;41.594;23.808;2022-12-20T06:44:23;2.70;;;2.40;;
24159;SDS011;62385;41.594;23.808;2022-12-20T06:46:49;3.73;;;2.67;;
24159;SDS011;62385;41.594;23.808;2022-12-20T06:49:15;8.93;;;4.53;;
24159;SDS011;62385;41.594;23.808;2022-12-20T06:51:41;6.23;;;3.30;;
24159;SDS011;62385;41.594;23.808;2022-12-20T06:54:07;10.80;;;4.00;;
24159;SDS011;62385;41.594;23.808;2022-12-20T06:56:33;4.70;;;3.27;;
24159;SDS011;62385;41.594;23.808;2022-12-20T06:58:59;4.20;;;2.87;;
24159;SDS011;62385;41.594;23.808;2022-12-20T07:01:24;4.07;;;3.77;;
24159;SDS011;62385;41.594;23.808;2022-12-20T07:03:50;4.27;;;2.67;;
24159;SDS011;62385;41.594;23.808;2022-12-20T07:06:16;7.60;;;3.87;;
24159;SDS011;62385;41.594;23.808;2022-12-20T07:09:01;4.03;;;2.60;;
24159;SDS011;62385;41.594;23.808;2022-12-20T07:11:28;5.03;;;3.43;;
24159;SDS011;62385;41.594;23.808;2022-12-20T07:13:54;24.43;;;2.33;;
24159;SDS011;62385;41.594;23.808;2022-12-20T07:16:22;3.67;;;2.67;;
24159;SDS011;62385;41.594;23.808;2022-12-20T07:18:48;2.87;;;1.50;;
24159;SDS011;62385;41.594;23.808;2022-12-20T07:21:15;1.60;;;1.47;;
24159;SDS011;62385;41.594;23.808;2022-12-20T07:23:41;3.20;;;2.80;;
24159;SDS011;62385;41.594;23.808;2022-12-20T07:26:08;1.10;;;1.00;;
24159;SDS011;62385;41.594;23.808;2022-12-20T07:28:34;6.37;;;2.10;;
24159;SDS011;62385;41.594;23.808;2022-12-20T07:31:01;1.40;;;1.30;;
24159;SDS011;62385;41.594;23.808;2022-12-20T07:33:28;9.07;;;5.17;;
24159;SDS011;62385;41.594;23.808;2022-12-20T07:36:01;5.00;;;3.33;;
24159;SDS011;62385;41.594;23.808;2022-12-20T07:38:29;8.33;;;5.90;;
24159;SDS011;62385;41.594;23.808;2022-12-20T07:40:55;11.23;;;6.63;;
24159;SDS011;62385;41.594;23.808;2022-12-20T07:43:20;5.47;;;3.03;;
24159;SDS011;62385;41.594;23.808;2022-12-20T07:45:46;12.83;;;7.23;;
24159;SDS011;62385;41.594;23.808;2022-12-20T07:48:12;16.10;;;6.87;;
24159;SDS011;62385;41.594;23.808;2022-12-20T07:50:38;9.43;;;4.87;;
24159;SDS011;62385;41.594;23.808;2022-12-20T07:53:05;2.47;;;2.27;;
24159;SDS011;62385;41.594;23.808;2022-12-20T07:55:33;8.70;;;4.13;;
24159;SDS011;62385;41.594;23.808;2022-12-20T07:58:02;2.83;;;2.10;;
24159;SDS011;62385;41.594;23.808;2022-12-20T08:00:31;2.40;;;1.40;;
24159;SDS011;62385;41.594;23.808;2022-12-20T08:03:01;1.47;;;1.37;;
24159;SDS011;62385;41.594;23.808;2022-12-20T08:05:34;1.73;;;0.93;;
24159;SDS011;62385;41.594;23.808;2022-12-20T08:08:03;3.43;;;3.13;;
24159;SDS011;62385;41.594;23.808;2022-12-20T08:10:30;2.57;;;2.00;;
24159;SDS011;62385;41.594;23.808;2022-12-20T08:12:56;1.90;;;0.93;;
24159;SDS011;62385;41.594;23.808;2022-12-20T08:15:23;13.87;;;1.63;;
24159;SDS011;62385;41.594;23.808;2022-12-20T08:17:50;9.90;;;4.37;;
24159;SDS011;62385;41.594;23.808;2022-12-20T08:20:16;6.13;;;2.87;;
24159;SDS011;62385;41.594;23.808;2022-12-20T08:22:42;3.13;;;2.17;;
24159;SDS011;62385;41.594;23.808;2022-12-20T08:25:07;7.17;;;4.33;;
24159;SDS011;62385;41.594;23.808;2022-12-20T08:27:33;1.87;;;1.13;;
24159;SDS011;62385;41.594;23.808;2022-12-20T08:30:00;1.83;;;1.47;;
24159;SDS011;62385;41.594;23.808;2022-12-20T08:32:26;5.77;;;1.97;;
24159;SDS011;62385;41.594;23.808;2022-12-20T08:34:52;4.13;;;2.73;;
24159;SDS011;62385;41.594;23.808;2022-12-20T08:37:18;5.90;;;3.03;;
24159;SDS011;62385;41.594;23.808;2022-12-20T08:39:45;3.27;;;2.87;;
24159;SDS011;62385;41.594;23.808;2022-12-20T08:42:10;2.00;;;1.27;;
24159;SDS011;62385;41.594;23.808;2022-12-20T08:44:36;2.97;;;2.47;;
24159;SDS011;62385;41.594;23.808;2022-12-20T08:47:02;2.27;;;1.80;;
24159;SDS011;62385;41.594;23.808;2022-12-20T08:49:28;5.87;;;2.50;;
24159;SDS011;62385;41.594;23.808;2022-12-20T08:51:54;8.13;;;5.03;;
24159;SDS011;62385;41.594;23.808;2022-12-20T08:54:20;10.97;;;5.47;;
24159;SDS011;62385;41.594;23.808;2022-12-20T08:56:45;7.80;;;2.67;;
24159;SDS011;62385;41.594;23.808;2022-12-20T08:59:12;2.63;;;1.80;;
24159;SDS011;62385;41.594;23.808;2022-12-20T09:01:38;3.47;;;1.93;;
24159;SDS011;62385;41.594;23.808;2022-12-20T09:04:04;4.57;;;2.07;;
24159;SDS011;62385;41.594;23.808;2022-12-20T09:06:30;0.40;;;0.40;;
24159;SDS011;62385;41.594;23.808;2022-12-20T09:08:55;4.30;;;2.40;;
24159;SDS011;62385;41.594;23.808;2022-12-20T09:11:22;4.30;;;2.13;;
24159;SDS011;62385;41.594;23.808;2022-12-20T09:13:51;8.37;;;1.73;;
24159;SDS011;62385;41.594;23.808;2022-12-20T09:16:19;4.60;;;2.13;;
24159;SDS011;62385;41.594;23.808;2022-12-20T09:18:50;3.07;;;1.23;;
24159;SDS011;62385;41.594;23.808;2022-12-20T09:21:17;3.03;;;1.77;;
24159;SDS011;62385;41.594;23.808;2022-12-20T09:23:43;3.63;;;1.87;;
24159;SDS011;62385;41.594;23.808;2022-12-20T09:26:10;2.73;;;1.50;;
24159;SDS011;62385;41.594;23.808;2022-12-20T09:28:37;2.50;;;0.80;;
24159;SDS011;62385;41.594;23.808;2022-12-20T09:31:04;4.43;;;1.87;;
24159;SDS011;62385;41.594;23.808;2022-12-20T09:33:31;0.73;;;0.67;;
24159;SDS011;62385;41.594;23.808;2022-12-20T09:35:58;3.17;;;1.50;;
24159;SDS011;62385;41.594;23.808;2022-12-20T09:38:25;3.20;;;1.80;;
24159;SDS011;62385;41.594;23.808;2022-12-20T09:40:53;2.50;;;1.87;;
24159;SDS011;62385;41.594;23.808;2022-12-20T09:43:21;0.67;;;0.63;;
24159;SDS011;62385;41.594;23.808;2022-12-20T09:45:51;0.83;;;0.70;;
24159;SDS011;62385;41.594;23.808;2022-12-20T09:48:20;4.23;;;1.33;;
24159;SDS011;62385;41.594;23.808;2022-12-20T09:53:55;1.93;;;1.30;;
24159;SDS011;62385;41.594;23.808;2022-12-20T09:56:29;1.03;;;0.70;;
24159;SDS011;62385;41.594;23.808;2022-12-20T09:59:03;8.63;;;2.17;;
24159;SDS011;62385;41.594;23.808;2022-12-20T10:01:32;3.27;;;1.27;;
24159;SDS011;62385;41.594;23.808;2022-12-20T10:04:00;0.60;;;0.60;;
24159;SDS011;62385;41.594;23.808;2022-12-20T10:17:14;1.03;;;0.93;;
24159;SDS011;62385;41.594;23.808;2022-12-20T10:20:16;0.90;;;0.67;;
24159;SDS011;62385;41.594;23.808;2022-12-20T10:23:21;6.60;;;1.47;;
24159;SDS011;62385;41.594;23.808;2022-12-20T10:25:50;1.40;;;1.30;;
24159;SDS011;62385;41.594;23.808;2022-12-20T10:28:18;2.10;;;1.50;;
24159;SDS011;62385;41.594;23.808;2022-12-20T10:30:48;2.07;;;1.27;;
24159;SDS011;62385;41.594;23.808;2022-12-20T10:33:19;1.27;;;0.70;;
24159;SDS011;62385;41.594;23.808;2022-12-20T10:35:46;5.87;;;2.07;;
24159;SDS011;62385;41.594;23.808;2022-12-20T10:38:13;6.33;;;3.53;;
24159;SDS011;62385;41.594;23.808;2022-12-20T10:43:23;3.10;;;1.80;;
24159;SDS011;62385;41.594;23.808;2022-12-20T10:46:03;1.57;;;1.40;;
24159;SDS011;62385;41.594;23.808;2022-12-20T10:48:48;0.50;;;0.40;;
24159;SDS011;62385;41.594;23.808;2022-12-20T10:51:19;0.77;;;0.77;;
24159;SDS011;62385;41.594;23.808;2022-12-20T11:01:42;2.50;;;1.43;;
24159;SDS011;62385;41.594;23.808;2022-12-20T11:04:26;2.20;;;0.73;;
24159;SDS011;62385;41.594;23.808;2022-12-20T11:06:57;4.17;;;0.73;;
24159;SDS011;62385;41.594;23.808;2022-12-20T11:14:36;1.07;;;0.73;;
24159;SDS011;62385;41.594;23.808;2022-12-20T11:17:04;0.40;;;0.40;;
24159;SDS011;62385;41.594;23.808;2022-12-20T11:33:44;1.93;;;1.10;;
24159;SDS011;62385;41.594;23.808;2022-12-20T11:46:35;0.93;;;0.63;;
24159;SDS011;62385;41.594;23.808;2022-12-20T11:52:11;1.93;;;0.97;;
24159;SDS011;62385;41.594;23.808;2022-12-20T11:54:46;3.57;;;0.97;;
24159;SDS011;62385;41.594;23.808;2022-12-20T11:57:27;2.43;;;1.67;;
24159;SDS011;62385;41.594;23.808;2022-12-20T12:00:00;1.53;;;1.10;;
24159;SDS011;62385;41.594;23.808;2022-12-20T12:02:46;3.00;;;1.80;;
24159;SDS011;62385;41.594;23.808;2022-12-20T12:07:55;1.40;;;0.90;;
24159;SDS011;62385;41.594;23.808;2022-12-20T12:10:28;1.43;;;1.17;;
24159;SDS011;62385;41.594;23.808;2022-12-20T12:13:34;2.57;;;1.13;;
24159;SDS011;62385;41.594;23.808;2022-12-20T12:18:33;3.20;;;1.60;;
24159;SDS011;62385;41.594;23.808;2022-12-20T12:23:54;2.70;;;0.83;;
24159;SDS011;62385;41.594;23.808;2022-12-20T12:26:27;1.80;;;1.00;;
24159;SDS011;62385;41.594;23.808;2022-12-20T12:29:00;2.10;;;0.90;;
24159;SDS011;62385;41.594;23.808;2022-12-20T12:31:49;1.27;;;0.60;;
24159;SDS011;62385;41.594;23.808;2022-12-20T12:34:28;1.93;;;1.63;;
24159;SDS011;62385;41.594;23.808;2022-12-20T12:42:39;2.07;;;1.33;;
24159;SDS011;62385;41.594;23.808;2022-12-20T12:46:08;2.67;;;1.53;;
24159;SDS011;62385;41.594;23.808;2022-12-20T12:48:16;3.60;;;1.27;;
24159;SDS011;62385;41.594;23.808;2022-12-20T12:50:48;2.10;;;1.23;;
24159;SDS011;62385;41.594;23.808;2022-12-20T12:55:58;1.60;;;0.67;;
24159;SDS011;62385;41.594;23.808;2022-12-20T13:04:27;5.00;;;3.10;;
24159;SDS011;62385;41.594;23.808;2022-12-20T13:11:53;2.33;;;1.37;;
24159;SDS011;62385;41.594;23.808;2022-12-20T13:16:47;1.30;;;0.83;;
24159;SDS011;62385;41.594;23.808;2022-12-20T13:19:17;2.63;;;0.90;;
24159;SDS011;62385;41.594;23.808;2022-12-20T13:21:56;4.23;;;1.30;;
24159;SDS011;62385;41.594;23.808;2022-12-20T13:29:58;2.87;;;1.27;;
24159;SDS011;62385;41.594;23.808;2022-12-20T13:38:02;2.00;;;1.30;;
24159;SDS011;62385;41.594;23.808;2022-12-20T13:40:42;2.33;;;1.40;;
24159;SDS011;62385;41.594;23.808;2022-12-20T13:51:15;7.67;;;1.43;;
24159;SDS011;62385;41.594;23.808;2022-12-20T13:53:56;14.07;;;2.17;;
24159;SDS011;62385;41.594;23.808;2022-12-20T13:58:51;4.00;;;1.20;;
24159;SDS011;62385;41.594;23.808;2022-12-20T14:01:22;1.27;;;1.10;;
24159;SDS011;62385;41.594;23.808;2022-12-20T14:03:49;3.15;;;2.10;;
24159;SDS011;62385;41.594;23.808;2022-12-20T14:06:17;2.93;;;1.60;;
24159;SDS011;62385;41.594;23.808;2022-12-20T14:08:46;1.83;;;1.05;;
24159;SDS011;62385;41.594;23.808;2022-12-20T14:13:40;2.10;;;1.27;;
24159;SDS011;62385;41.594;23.808;2022-12-20T14:16:13;0.93;;;0.85;;
24159;SDS011;62385;41.594;23.808;2022-12-20T14:18:41;1.90;;;1.40;;
24159;SDS011;62385;41.594;23.808;2022-12-20T14:21:12;1.37;;;0.97;;
24159;SDS011;62385;41.594;23.808;2022-12-20T14:23:42;2.70;;;0.70;;
24159;SDS011;62385;41.594;23.808;2022-12-20T14:26:13;1.23;;;0.50;;
24159;SDS011;62385;41.594;23.808;2022-12-20T14:39:52;5.97;;;2.43;;
24159;SDS011;62385;41.594;23.808;2022-12-20T14:44:49;3.70;;;2.33;;
24159;SDS011;62385;41.594;23.808;2022-12-20T14:47:24;6.90;;;3.13;;
24159;SDS011;62385;41.594;23.808;2022-12-20T14:52:32;7.53;;;5.73;;
24159;SDS011;62385;41.594;23.808;2022-12-20T14:55:06;18.97;;;9.17;;
24159;SDS011;62385;41.594;23.808;2022-12-20T14:57:45;34.67;;;11.07;;
24159;SDS011;62385;41.594;23.808;2022-12-20T15:10:36;8.30;;;4.17;;
24159;SDS011;62385;41.594;23.808;2022-12-20T15:13:02;8.10;;;4.57;;
24159;SDS011;62385;41.594;23.808;2022-12-20T15:15:28;9.00;;;3.20;;
24159;SDS011;62385;41.594;23.808;2022-12-20T15:17:54;7.63;;;4.50;;
24159;SDS011;62385;41.594;23.808;2022-12-20T15:20:20;8.63;;;4.60;;
24159;SDS011;62385;41.594;23.808;2022-12-20T15:22:45;14.97;;;4.33;;
24159;SDS011;62385;41.594;23.808;2022-12-20T15:25:15;7.93;;;3.03;;
24159;SDS011;62385;41.594;23.808;2022-12-20T15:27:42;1.90;;;1.77;;
24159;SDS011;62385;41.594;23.808;2022-12-20T15:30:11;1.73;;;1.60;;
24159;SDS011;62385;41.594;23.808;2022-12-20T15:32:41;4.30;;;3.27;;
24159;SDS011;62385;41.594;23.808;2022-12-20T15:35:13;5.50;;;2.57;;
24159;SDS011;62385;41.594;23.808;2022-12-20T15:37:39;5.03;;;3.47;;
24159;SDS011;62385;41.594;23.808;2022-12-20T15:40:05;11.43;;;3.93;;
24159;SDS011;62385;41.594;23.808;2022-12-20T15:42:32;10.93;;;3.20;;
24159;SDS011;62385;41.594;23.808;2022-12-20T15:44:57;8.33;;;2.53;;
24159;SDS011;62385;41.594;23.808;2022-12-20T15:47:42;3.00;;;2.43;;
24159;SDS011;62385;41.594;23.808;2022-12-20T15:50:08;4.00;;;2.17;;
24159;SDS011;62385;41.594;23.808;2022-12-20T15:52:35;10.53;;;3.97;;
24159;SDS011;62385;41.594;23.808;2022-12-20T15:55:01;5.10;;;2.80;;
24159;SDS011;62385;41.594;23.808;2022-12-20T15:57:26;6.63;;;2.63;;
24159;SDS011;62385;41.594;23.808;2022-12-20T15:59:53;4.60;;;2.90;;
24159;SDS011;62385;41.594;23.808;2022-12-20T16:02:24;11.83;;;6.57;;
24159;SDS011;62385;41.594;23.808;2022-12-20T16:04:53;7.73;;;3.83;;
24159;SDS011;62385;41.594;23.808;2022-12-20T16:07:19;6.60;;;2.00;;
24159;SDS011;62385;41.594;23.808;2022-12-20T16:09:45;7.47;;;1.83;;
24159;SDS011;62385;41.594;23.808;2022-12-20T16:12:15;13.10;;;4.70;;
24159;SDS011;62385;41.594;23.808;2022-12-20T16:14:43;15.50;;;4.07;;
24159;SDS011;62385;41.594;23.808;2022-12-20T16:17:12;12.50;;;4.23;;
24159;SDS011;62385;41.594;23.808;2022-12-20T16:19:38;10.63;;;4.13;;
24159;SDS011;62385;41.594;23.808;2022-12-20T16:22:04;5.97;;;1.80;;
24159;SDS011;62385;41.594;23.808;2022-12-20T16:24:30;11.37;;;3.77;;
24159;SDS011;62385;41.594;23.808;2022-12-20T16:26:55;4.03;;;3.37;;
24159;SDS011;62385;41.594;23.808;2022-12-20T16:29:22;8.37;;;4.23;;
24159;SDS011;62385;41.594;23.808;2022-12-20T16:31:48;8.90;;;2.53;;
24159;SDS011;62385;41.594;23.808;2022-12-20T16:34:17;5.20;;;4.07;;
24159;SDS011;62385;41.594;23.808;2022-12-20T16:36:43;6.63;;;2.93;;
24159;SDS011;62385;41.594;23.808;2022-12-20T16:39:09;9.47;;;5.63;;
24159;SDS011;62385;41.594;23.808;2022-12-20T16:41:35;14.60;;;6.43;;
24159;SDS011;62385;41.594;23.808;2022-12-20T16:44:03;10.70;;;5.80;;
24159;SDS011;62385;41.594;23.808;2022-12-20T16:46:29;10.17;;;7.53;;
24159;SDS011;62385;41.594;23.808;2022-12-20T16:48:57;12.47;;;7.07;;
24159;SDS011;62385;41.594;23.808;2022-12-20T16:51:25;5.57;;;3.50;;
24159;SDS011;62385;41.594;23.808;2022-12-20T16:53:55;18.60;;;5.73;;
24159;SDS011;62385;41.594;23.808;2022-12-20T16:56:44;11.57;;;4.27;;
24159;SDS011;62385;41.594;23.808;2022-12-20T16:59:16;4.03;;;2.77;;
24159;SDS011;62385;41.594;23.808;2022-12-20T17:01:41;3.00;;;2.07;;
24159;SDS011;62385;41.594;23.808;2022-12-20T17:04:12;8.30;;;5.20;;
24159;SDS011;62385;41.594;23.808;2022-12-20T17:06:39;5.27;;;3.47;;
24159;SDS011;62385;41.594;23.808;2022-12-20T17:09:06;9.93;;;7.83;;
24159;SDS011;62385;41.594;23.808;2022-12-20T17:11:31;11.47;;;3.73;;
24159;SDS011;62385;41.594;23.808;2022-12-20T17:13:57;8.60;;;3.10;;
24159;SDS011;62385;41.594;23.808;2022-12-20T17:16:24;1.23;;;0.80;;
24159;SDS011;62385;41.594;23.808;2022-12-20T17:18:52;3.50;;;1.03;;
24159;SDS011;62385;41.594;23.808;2022-12-20T17:21:19;8.50;;;2.90;;
24159;SDS011;62385;41.594;23.808;2022-12-20T17:24:13;8.73;;;4.23;;
24159;SDS011;62385;41.594;23.808;2022-12-20T17:26:43;7.93;;;3.03;;
24159;SDS011;62385;41.594;23.808;2022-12-20T17:29:09;5.20;;;4.67;;